createdAt,value
2018-08-24T00:00:29.553Z,67.53
2018-08-24T00:02:58.371Z,67.23
2018-08-24T00:05:27.239Z,62.87
2018-08-24T00:07:56.055Z,63.33
2018-08-24T00:10:24.874Z,64.00
2018-08-24T00:12:53.749Z,57.73
2018-08-24T00:15:22.533Z,51.50
2018-08-24T00:17:51.664Z,50.03
2018-08-24T00:20:20.484Z,53.40
2018-08-24T00:22:49.292Z,48.10
2018-08-24T00:25:18.162Z,47.30
2018-08-24T00:27:46.940Z,48.87
2018-08-24T00:30:15.765Z,51.30
2018-08-24T00:32:47.490Z,51.13
2018-08-24T00:35:16.289Z,50.47
2018-08-24T00:37:45.316Z,50.80
2018-08-24T00:40:14.106Z,51.83
2018-08-24T00:42:43.338Z,47.20
2018-08-24T00:45:12.160Z,49.33
2018-08-24T00:47:40.981Z,38.10
2018-08-24T00:50:09.798Z,37.90
2018-08-24T00:52:38.614Z,37.27
2018-08-24T00:55:08.234Z,35.50
2018-08-24T00:57:37.046Z,38.07
2018-08-24T01:00:07.649Z,43.93
2018-08-24T01:02:36.485Z,40.87
2018-08-24T01:05:05.286Z,40.93
2018-08-24T01:07:39.669Z,40.67
2018-08-24T01:10:13.865Z,37.70
2018-08-24T01:12:42.672Z,44.87
2018-08-24T01:15:14.254Z,44.87
2018-08-24T01:17:49.133Z,50.90
2018-08-24T01:20:19.875Z,47.78
2018-08-24T01:22:48.681Z,45.10
2018-08-24T01:25:17.701Z,48.67
2018-08-24T01:27:46.530Z,52.40
2018-08-24T01:30:15.381Z,49.17
2018-08-24T01:32:44.207Z,54.03
2018-08-24T01:35:13.022Z,57.00
2018-08-24T01:37:41.822Z,53.70
2018-08-24T01:40:11.005Z,55.90
2018-08-24T01:42:39.814Z,55.30
2018-08-24T01:45:09.623Z,53.42
2018-08-24T01:47:38.446Z,57.00
2018-08-24T01:50:08.127Z,51.90
2018-08-24T01:52:36.942Z,56.77
2018-08-24T01:55:05.777Z,57.47
2018-08-24T01:57:34.593Z,59.07
2018-08-24T02:00:03.420Z,53.83
2018-08-24T02:02:32.559Z,58.90
2018-08-24T02:05:01.391Z,63.53
2018-08-24T02:07:30.219Z,62.07
2018-08-24T02:09:59.052Z,64.80
2018-08-24T02:12:33.367Z,68.60
2018-08-24T02:15:02.180Z,72.60
2018-08-24T02:17:36.397Z,69.63
2018-08-24T02:20:10.683Z,72.67
2018-08-24T02:22:40.415Z,72.10
2018-08-24T02:25:09.249Z,88.13
2018-08-24T02:27:38.067Z,87.50
2018-08-24T02:30:08.378Z,87.75
2018-08-24T02:32:37.185Z,87.53
2018-08-24T02:35:06.627Z,85.63
2018-08-24T02:37:35.485Z,91.13
2018-08-24T02:40:04.913Z,74.80
2018-08-24T02:42:34.063Z,59.73
2018-08-24T02:45:02.938Z,71.27
2018-08-24T02:47:32.182Z,66.07
2018-08-24T02:50:00.997Z,59.20
2018-08-24T02:52:29.819Z,57.03
2018-08-24T02:54:58.625Z,49.63
2018-08-24T02:57:27.482Z,48.63
2018-08-24T02:59:56.302Z,48.13
2018-08-24T03:02:25.136Z,45.87
2018-08-24T03:04:54.489Z,43.07
2018-08-24T03:07:23.639Z,46.33
2018-08-24T03:09:52.439Z,46.07
2018-08-24T03:12:21.270Z,45.50
2018-08-24T03:14:50.919Z,44.80
2018-08-24T03:17:25.040Z,44.30
2018-08-24T03:19:53.845Z,40.97
2018-08-24T03:22:22.653Z,42.87
2018-08-24T03:24:52.067Z,39.63
2018-08-24T03:27:20.887Z,38.77
2018-08-24T03:29:49.692Z,32.13
2018-08-24T03:32:18.549Z,35.83
2018-08-24T03:34:47.349Z,34.70
2018-08-24T03:37:16.163Z,34.77
2018-08-24T03:39:44.960Z,34.27
2018-08-24T03:42:13.762Z,35.17
2018-08-24T03:44:42.588Z,35.60
2018-08-24T03:47:11.729Z,36.03
2018-08-24T03:49:41.145Z,36.53
2018-08-24T03:52:09.946Z,33.37
2018-08-24T03:54:45.082Z,37.03
2018-08-24T03:57:13.884Z,37.70
2018-08-24T03:59:42.687Z,34.40
2018-08-24T04:02:12.820Z,34.53
2018-08-24T04:04:42.008Z,33.17
2018-08-24T04:07:10.819Z,34.80
2018-08-24T04:09:39.639Z,32.63
2018-08-24T04:12:08.446Z,31.43
2018-08-24T04:14:37.268Z,31.23
2018-08-24T04:17:11.713Z,28.60
2018-08-24T04:19:40.517Z,26.57
2018-08-24T04:22:09.391Z,25.77
2018-08-24T04:24:38.562Z,27.83
2018-08-24T04:27:07.394Z,25.67
2018-08-24T04:29:36.199Z,27.30
2018-08-24T04:32:05.024Z,28.00
2018-08-24T04:34:33.833Z,28.80
2018-08-24T04:37:02.653Z,27.80
2018-08-24T04:39:31.439Z,28.57
2018-08-24T04:42:00.275Z,32.53
2018-08-24T04:44:29.094Z,28.27
2018-08-24T04:46:58.302Z,27.83
2018-08-24T04:49:27.150Z,29.40
2018-08-24T04:51:56.393Z,25.43
2018-08-24T04:54:25.245Z,26.43
2018-08-24T04:56:54.027Z,24.10
2018-08-24T04:59:22.832Z,26.97
2018-08-24T05:01:51.653Z,23.83
2018-08-24T05:04:20.478Z,24.43
2018-08-24T05:06:49.294Z,26.23
2018-08-24T05:09:18.598Z,27.80
2018-08-24T05:11:47.418Z,23.63
2018-08-24T05:14:16.215Z,24.93
2018-08-24T05:16:45.032Z,25.00
2018-08-24T05:19:13.866Z,26.70
2018-08-24T05:21:43.258Z,27.23
2018-08-24T05:24:12.082Z,24.70
2018-08-24T05:26:40.906Z,25.27
2018-08-24T05:29:09.714Z,24.17
2018-08-24T05:31:38.827Z,24.57
2018-08-24T05:34:07.668Z,26.83
2018-08-24T05:36:36.486Z,24.77
2018-08-24T05:39:07.495Z,26.83
2018-08-24T05:41:37.055Z,24.83
2018-08-24T05:44:05.882Z,27.43
2018-08-24T05:46:34.887Z,26.70
2018-08-24T05:49:03.718Z,26.23
2018-08-24T05:51:32.550Z,27.10
2018-08-24T05:54:03.383Z,27.47
2018-08-24T05:56:32.194Z,27.20
2018-08-24T05:59:01.013Z,24.63
2018-08-24T06:01:29.838Z,27.10
2018-08-24T06:03:58.654Z,25.23
2018-08-24T06:06:27.466Z,26.50
2018-08-24T06:09:01.473Z,27.63
2018-08-24T06:11:30.294Z,27.87
2018-08-24T06:13:59.104Z,27.40
2018-08-24T06:16:28.147Z,27.40
2018-08-24T06:18:56.977Z,24.60
2018-08-24T06:21:25.807Z,28.07
2018-08-24T06:23:54.638Z,27.70
2018-08-24T06:26:23.460Z,27.93
2018-08-24T06:28:52.696Z,25.83
2018-08-24T06:31:21.551Z,27.90
2018-08-24T06:33:50.358Z,27.27
2018-08-24T06:36:19.175Z,28.37
2018-08-24T06:38:48.201Z,27.87
2018-08-24T06:41:17.014Z,27.03
2018-08-24T06:43:45.827Z,28.77
2018-08-24T06:46:14.642Z,28.30
2018-08-24T06:48:43.454Z,26.83
2018-08-24T06:51:12.271Z,26.83
2018-08-24T06:53:41.243Z,26.43
2018-08-24T06:56:10.361Z,25.67
2018-08-24T06:58:39.272Z,24.43
2018-08-24T07:01:08.642Z,26.13
2018-08-24T07:03:37.453Z,23.97
2018-08-24T07:06:06.358Z,22.40
2018-08-24T07:08:35.166Z,21.17
2018-08-24T07:11:03.973Z,22.30
2018-08-24T07:13:32.777Z,21.03
2018-08-24T07:16:01.618Z,21.47
2018-08-24T07:18:34.603Z,20.97
2018-08-24T07:21:03.747Z,18.53
2018-08-24T07:23:32.594Z,19.97
2018-08-24T07:26:01.398Z,20.00
2018-08-24T07:28:30.240Z,20.20
2018-08-24T07:30:59.078Z,19.43
2018-08-24T07:33:27.958Z,20.10
2018-08-24T07:35:56.790Z,17.07
2018-08-24T07:38:25.624Z,17.20
2018-08-24T07:40:54.472Z,15.30
2018-08-24T07:43:23.918Z,17.13
2018-08-24T07:45:52.732Z,14.43
2018-08-24T07:48:21.578Z,14.50
2018-08-24T07:50:50.503Z,13.73
2018-08-24T07:53:19.300Z,14.13
2018-08-24T07:55:48.123Z,13.07
2018-08-24T07:58:17.354Z,14.70
2018-08-24T08:00:46.270Z,13.30
2018-08-24T08:03:15.118Z,15.53
2018-08-24T08:05:44.416Z,15.47
2018-08-24T08:08:13.331Z,14.30
2018-08-24T08:10:42.437Z,13.53
2018-08-24T08:13:12.113Z,14.03
2018-08-24T08:15:41.351Z,13.67
2018-08-24T08:18:10.247Z,15.97
2018-08-24T08:20:39.007Z,15.07
2018-08-24T08:23:08.139Z,14.80
2018-08-24T08:25:37.156Z,16.37
2018-08-24T08:28:06.263Z,15.17
2018-08-24T08:30:35.103Z,17.80
2018-08-24T08:33:03.930Z,15.77
2018-08-24T08:35:32.769Z,18.47
2018-08-24T08:38:01.576Z,19.43
2018-08-24T08:40:30.403Z,18.47
2018-08-24T08:42:59.226Z,19.50
2018-08-24T08:49:00.443Z,17.97
2018-08-24T08:51:29.258Z,17.67
2018-08-24T08:53:58.075Z,19.70
2018-08-24T08:56:26.910Z,17.50
2018-08-24T08:58:56.128Z,16.40
2018-08-24T09:01:24.995Z,14.03
2018-08-24T09:03:53.894Z,14.20
2018-08-24T09:06:22.721Z,12.50
2018-08-24T09:08:51.551Z,12.43
2018-08-24T09:11:20.695Z,12.87
2018-08-24T09:13:49.543Z,12.70
2018-08-24T09:16:18.365Z,8.00
2018-08-24T09:18:52.682Z,6.90
2018-08-24T09:21:26.728Z,6.97
2018-08-24T09:24:01.112Z,6.33
2018-08-24T09:26:35.287Z,7.77
2018-08-24T09:29:08.305Z,7.90
2018-08-24T09:31:38.857Z,9.73
2018-08-24T09:34:07.676Z,5.90
2018-08-24T09:36:36.495Z,7.97
2018-08-24T09:39:08.453Z,6.47
2018-08-24T09:41:37.279Z,5.17
2018-08-24T09:44:06.135Z,5.10
2018-08-24T09:46:40.849Z,5.30
2018-08-24T09:49:15.000Z,4.40
2018-08-24T09:51:43.791Z,4.77
2018-08-24T09:54:12.596Z,5.40
2018-08-24T09:56:41.500Z,5.93
2018-08-24T09:59:10.816Z,8.23
2018-08-24T10:01:44.967Z,5.67
2018-08-24T10:04:19.626Z,4.93
2018-08-24T10:06:54.059Z,5.40
2018-08-24T10:09:22.866Z,5.67
2018-08-24T10:11:51.701Z,6.97
2018-08-24T10:14:20.513Z,6.37
2018-08-24T10:16:49.370Z,5.97
2018-08-24T10:19:18.174Z,6.90
2018-08-24T10:21:46.991Z,6.90
2018-08-24T10:24:16.089Z,6.57
2018-08-24T10:26:44.897Z,6.80
2018-08-24T10:29:13.749Z,9.63
2018-08-24T10:31:42.547Z,7.20
2018-08-24T10:34:11.367Z,7.57
2018-08-24T10:36:40.183Z,7.73
2018-08-24T10:39:10.743Z,6.70
2018-08-24T10:41:39.598Z,6.60
2018-08-24T10:44:08.758Z,7.30
2018-08-24T10:46:38.097Z,6.00
2018-08-24T10:49:06.914Z,9.90
2018-08-24T10:51:35.835Z,9.43
2018-08-24T10:54:04.591Z,7.43
2018-08-24T10:56:33.385Z,8.10
2018-08-24T10:59:02.262Z,9.63
2018-08-24T11:01:31.446Z,15.40
2018-08-24T11:04:00.342Z,6.40
2018-08-24T11:06:29.141Z,6.40
2018-08-24T11:08:58.404Z,9.10
2018-08-24T11:11:27.223Z,11.07
2018-08-24T11:13:56.049Z,7.27
2018-08-24T11:16:24.871Z,18.30
2018-08-24T11:18:53.694Z,5.03
2018-08-24T11:21:22.547Z,8.20
2018-08-24T11:23:51.434Z,5.50
2018-08-24T11:26:20.342Z,25.10
2018-08-24T11:28:49.115Z,10.30
2018-08-24T11:31:18.291Z,8.43
2018-08-24T11:33:47.206Z,5.30
2018-08-24T11:36:16.204Z,8.77
2018-08-24T11:38:44.941Z,11.30
2018-08-24T11:41:13.753Z,5.90
2018-08-24T11:43:42.590Z,5.97
2018-08-24T11:46:11.430Z,8.83
2018-08-24T11:48:40.241Z,5.13
2018-08-24T11:51:09.073Z,5.50
2018-08-24T11:53:38.106Z,6.43
2018-08-24T11:56:07.421Z,6.87
2018-08-24T11:58:36.222Z,8.03
2018-08-24T12:01:05.099Z,6.37
2018-08-24T12:03:34.382Z,6.63
2018-08-24T12:06:03.396Z,7.23
2018-08-24T12:08:32.222Z,5.13
2018-08-24T12:11:01.078Z,5.10
2018-08-24T12:13:29.870Z,6.03
2018-08-24T12:15:59.366Z,6.10
2018-08-24T12:18:28.827Z,7.47
2018-08-24T12:20:57.552Z,5.57
2018-08-24T12:23:26.466Z,9.00
2018-08-24T12:25:55.298Z,5.80
2018-08-24T12:28:24.166Z,6.33
2018-08-24T12:30:53.106Z,6.27
2018-08-24T12:33:21.901Z,8.50
2018-08-24T12:35:50.736Z,6.47
2018-08-24T12:38:19.893Z,7.23
2018-08-24T12:40:48.724Z,7.77
2018-08-24T12:43:17.538Z,7.33
2018-08-24T12:45:46.357Z,7.73
2018-08-24T12:48:15.209Z,7.57
2018-08-24T12:50:44.033Z,8.70
2018-08-24T12:53:12.860Z,11.13
2018-08-24T12:55:41.726Z,7.27
2018-08-24T12:58:10.550Z,7.63
2018-08-24T13:00:39.822Z,7.10
2018-08-24T13:03:08.633Z,8.77
2018-08-24T13:05:37.843Z,8.30
2018-08-24T13:08:06.697Z,8.73
2018-08-24T13:10:35.526Z,8.43
2018-08-24T13:13:04.358Z,8.63
2018-08-24T13:15:33.181Z,10.27
2018-08-24T13:18:02.019Z,9.90
2018-08-24T13:20:30.888Z,9.03
2018-08-24T13:23:00.103Z,8.27
2018-08-24T13:25:28.946Z,9.27
2018-08-24T13:27:57.804Z,8.87
2018-08-24T13:30:26.651Z,8.50
2018-08-24T13:32:55.449Z,9.33
2018-08-24T13:35:24.281Z,7.83
2018-08-24T13:37:53.119Z,9.70
2018-08-24T13:40:22.569Z,8.43
2018-08-24T13:42:51.379Z,8.87
2018-08-24T13:45:20.607Z,8.30
2018-08-24T13:47:49.426Z,9.97
2018-08-24T13:50:18.258Z,7.73
2018-08-24T13:52:47.082Z,9.20
2018-08-24T13:55:15.881Z,8.60
2018-08-24T13:57:44.683Z,8.20
2018-08-24T14:00:13.551Z,10.25
2018-08-24T14:02:42.360Z,9.10
2018-08-24T14:05:11.408Z,9.17
2018-08-24T14:07:41.188Z,10.47
2018-08-24T14:10:13.053Z,7.97
2018-08-24T14:12:41.894Z,8.93
2018-08-24T14:15:10.760Z,11.27
2018-08-24T14:17:39.673Z,10.70
2018-08-24T14:20:08.561Z,8.53
2018-08-24T14:22:37.379Z,9.80
2018-08-24T14:25:06.217Z,9.53
2018-08-24T14:27:35.034Z,8.90
2018-08-24T14:30:04.174Z,9.10
2018-08-24T14:32:33.009Z,9.87
2018-08-24T14:35:01.823Z,8.70
2018-08-24T14:37:30.632Z,8.63
2018-08-24T14:39:59.450Z,14.17
2018-08-24T14:42:28.381Z,9.23
2018-08-24T14:44:57.226Z,10.00
2018-08-24T14:47:26.247Z,8.73
2018-08-24T14:49:55.254Z,8.87
2018-08-24T14:52:24.619Z,9.50
2018-08-24T14:54:53.436Z,9.83
2018-08-24T14:57:23.101Z,9.00
2018-08-24T14:59:52.511Z,9.73
2018-08-24T15:02:21.356Z,9.43
2018-08-24T15:04:50.139Z,8.67
2018-08-24T15:07:18.970Z,10.27
2018-08-24T15:09:48.316Z,13.27
2018-08-24T15:12:17.195Z,9.97
2018-08-24T15:14:46.467Z,9.80
2018-08-24T15:17:15.311Z,8.37
2018-08-24T15:19:44.307Z,8.47
2018-08-24T15:22:13.846Z,7.60
2018-08-24T15:24:42.723Z,9.00
2018-08-24T15:27:11.562Z,8.10
2018-08-24T15:29:40.524Z,8.17
2018-08-24T15:32:09.258Z,8.10
2018-08-24T15:34:38.050Z,8.03
2018-08-24T15:37:07.941Z,8.07
2018-08-24T15:39:36.754Z,10.10
2018-08-24T15:42:06.216Z,8.43
2018-08-24T15:44:35.045Z,11.97
2018-08-24T15:47:03.915Z,8.00
2018-08-24T15:49:32.725Z,9.50
2018-08-24T15:52:01.554Z,10.27
2018-08-24T15:54:30.345Z,8.27
2018-08-24T15:56:59.123Z,8.13
2018-08-24T15:59:28.341Z,8.13
2018-08-24T16:01:57.134Z,7.47
2018-08-24T16:04:25.950Z,8.27
2018-08-24T16:06:55.028Z,8.37
2018-08-24T16:09:23.839Z,8.33
2018-08-24T16:11:53.325Z,9.00
2018-08-24T16:14:22.161Z,7.93
2018-08-24T16:16:57.754Z,15.43
2018-08-24T16:19:26.910Z,9.40
2018-08-24T16:21:55.791Z,7.53
2018-08-24T16:24:24.554Z,9.37
2018-08-24T16:26:53.450Z,8.37
2018-08-24T16:29:22.235Z,9.23
2018-08-24T16:31:51.093Z,9.67
2018-08-24T16:34:19.906Z,9.13
2018-08-24T16:36:48.745Z,8.13
2018-08-24T16:39:17.535Z,8.13
2018-08-24T16:41:46.598Z,9.30
2018-08-24T16:44:15.458Z,10.83
2018-08-24T16:46:44.293Z,9.73
2018-08-24T16:49:13.099Z,10.47
2018-08-24T16:51:41.922Z,10.80
2018-08-24T16:54:10.782Z,8.87
2018-08-24T16:56:39.654Z,6.87
2018-08-24T16:59:08.540Z,8.90
2018-08-24T17:01:37.409Z,10.10
2018-08-24T17:04:06.680Z,9.13
2018-08-24T17:06:35.539Z,8.20
2018-08-24T17:09:06.727Z,8.43
2018-08-24T17:11:35.567Z,10.60
2018-08-24T17:14:04.863Z,7.27
2018-08-24T17:16:33.702Z,14.13
2018-08-24T17:19:02.539Z,9.53
2018-08-24T17:21:31.439Z,7.20
2018-08-24T17:24:00.284Z,7.47
2018-08-24T17:26:29.622Z,7.60
2018-08-24T17:28:58.521Z,6.70
2018-08-24T17:31:27.366Z,8.83
2018-08-24T17:33:56.247Z,6.77
2018-08-24T17:36:25.093Z,6.87
2018-08-24T17:38:53.946Z,6.60
2018-08-24T17:41:23.118Z,7.73
2018-08-24T17:43:51.912Z,6.80
2018-08-24T17:46:20.740Z,6.27
2018-08-24T17:48:49.993Z,5.67
2018-08-24T17:51:18.806Z,5.50
2018-08-24T17:53:47.618Z,7.17
2018-08-24T17:56:16.436Z,5.37
2018-08-24T17:58:45.230Z,5.83
2018-08-24T18:01:14.027Z,5.63
2018-08-24T18:03:42.813Z,9.37
2018-08-24T18:06:13.567Z,13.53
2018-08-24T18:08:42.370Z,5.67
2018-08-24T18:11:11.443Z,6.63
2018-08-24T18:13:40.278Z,5.53
2018-08-24T18:16:09.539Z,6.60
2018-08-24T18:18:38.332Z,6.17
2018-08-24T18:21:07.120Z,4.83
2018-08-24T18:23:35.965Z,6.27
2018-08-24T18:26:04.783Z,6.10
2018-08-24T18:28:33.590Z,5.43
2018-08-24T18:31:02.393Z,6.13
2018-08-24T18:33:31.473Z,5.63
2018-08-24T18:36:00.267Z,6.07
2018-08-24T18:38:29.062Z,6.83
2018-08-24T18:40:57.897Z,6.03
2018-08-24T18:43:26.901Z,8.10
2018-08-24T18:45:56.066Z,9.60
2018-08-24T18:48:24.904Z,5.30
2018-08-24T18:50:53.865Z,5.03
2018-08-24T18:53:22.575Z,10.33
2018-08-24T18:55:52.160Z,7.40
2018-08-24T18:58:20.957Z,5.13
2018-08-24T19:00:49.763Z,4.80
2018-08-24T19:03:18.550Z,5.53
2018-08-24T19:05:47.359Z,5.13
2018-08-24T19:08:16.142Z,4.80
2018-08-24T19:10:50.254Z,4.67
2018-08-24T19:13:19.040Z,5.43
2018-08-24T19:15:49.258Z,7.67
2018-08-24T19:18:24.525Z,5.87
2018-08-24T19:20:58.568Z,5.90
2018-08-24T19:23:27.353Z,4.40
2018-08-24T19:25:56.156Z,4.58
2018-08-24T19:28:30.422Z,4.47
2018-08-24T19:30:59.292Z,7.57
2018-08-24T19:33:31.354Z,4.53
2018-08-24T19:36:00.162Z,5.23
2018-08-24T19:38:28.956Z,7.43
2018-08-24T19:41:03.046Z,8.30
2018-08-24T19:43:31.849Z,7.57
2018-08-24T19:46:00.646Z,6.13
2018-08-24T19:48:35.251Z,4.90
2018-08-24T19:51:04.055Z,5.57
2018-08-24T19:53:33.126Z,9.57
2018-08-24T19:56:01.960Z,8.00
2018-08-24T19:58:36.127Z,7.83
2018-08-24T20:01:04.938Z,6.00
2018-08-24T20:03:33.721Z,4.40
2018-08-24T20:06:08.505Z,4.33
2018-08-24T20:08:42.798Z,4.93
2018-08-24T20:11:11.563Z,5.37
2018-08-24T20:13:40.339Z,4.23
2018-08-24T20:16:14.516Z,9.00
2018-08-24T20:18:43.660Z,5.67
2018-08-24T20:21:12.369Z,6.13
2018-08-24T20:23:41.418Z,5.20
2018-08-24T20:26:10.216Z,4.33
2018-08-24T20:28:38.996Z,4.40
2018-08-24T20:31:07.789Z,5.33
2018-08-24T20:33:36.646Z,8.87
2018-08-24T20:36:05.460Z,4.90
2018-08-24T20:38:34.299Z,4.07
2018-08-24T20:41:03.083Z,4.60
2018-08-24T20:43:31.864Z,4.30
2018-08-24T20:46:01.129Z,5.40
2018-08-24T20:48:29.919Z,5.43
2018-08-24T20:50:58.711Z,5.30
2018-08-24T20:53:27.530Z,5.03
2018-08-24T20:55:56.319Z,5.00
2018-08-24T20:58:25.214Z,6.10
2018-08-24T21:00:54.010Z,6.60
2018-08-24T21:03:22.794Z,5.73
2018-08-24T21:05:51.592Z,5.93
2018-08-24T21:08:20.854Z,5.67
2018-08-24T21:10:56.423Z,6.30
2018-08-24T21:13:25.221Z,6.53
2018-08-24T21:15:54.043Z,5.93
2018-08-24T21:18:22.824Z,3.63
2018-08-24T21:20:52.019Z,6.10
2018-08-24T21:23:20.849Z,5.93
2018-08-24T21:25:49.658Z,7.17
2018-08-24T21:28:18.742Z,10.10
2018-08-24T21:30:47.534Z,5.10
2018-08-24T21:33:16.327Z,5.37
2018-08-24T21:35:45.159Z,5.03
2018-08-24T21:38:20.731Z,5.03
2018-08-24T21:40:49.552Z,4.70
2018-08-24T21:43:18.369Z,4.57
2018-08-24T21:45:47.162Z,3.63
2018-08-24T21:48:16.424Z,9.50
2018-08-24T21:50:45.222Z,6.30
2018-08-24T21:53:14.002Z,6.10
2018-08-24T21:55:45.888Z,4.37
2018-08-24T21:58:14.896Z,4.37
2018-08-24T22:00:43.836Z,5.67
2018-08-24T22:03:13.667Z,3.53
2018-08-24T22:05:42.766Z,3.33
2018-08-24T22:08:12.082Z,5.00
2018-08-24T22:10:41.262Z,2.93
2018-08-24T22:13:10.040Z,4.63
2018-08-24T22:15:38.866Z,3.33
2018-08-24T22:18:07.675Z,4.73
2018-08-24T22:20:36.523Z,5.57
2018-08-24T22:23:05.794Z,4.47
2018-08-24T22:25:34.633Z,3.33
2018-08-24T22:28:03.422Z,3.67
2018-08-24T22:30:32.206Z,6.67
2018-08-24T22:33:01.380Z,4.87
2018-08-24T22:35:30.189Z,3.07
2018-08-24T22:37:58.983Z,4.77
2018-08-24T22:40:27.798Z,5.07
2018-08-24T22:42:56.582Z,3.67
2018-08-24T22:45:25.415Z,4.53
2018-08-24T22:47:54.539Z,3.07
2018-08-24T22:50:23.486Z,7.37
2018-08-24T22:52:52.267Z,9.13
2018-08-24T22:55:21.722Z,3.03
2018-08-24T22:57:50.551Z,4.63
2018-08-24T23:00:19.400Z,2.83
2018-08-24T23:02:48.186Z,5.23
2018-08-24T23:05:16.971Z,3.30
2018-08-24T23:07:45.783Z,3.63
2018-08-24T23:10:14.758Z,4.90
2018-08-24T23:12:43.546Z,2.57
2018-08-24T23:15:12.387Z,2.50
2018-08-24T23:17:41.413Z,4.77
2018-08-24T23:20:10.313Z,3.13
2018-08-24T23:22:39.089Z,2.43
2018-08-24T23:25:09.483Z,2.13
2018-08-24T23:27:38.301Z,2.90
2018-08-24T23:30:08.474Z,7.50
2018-08-24T23:32:37.259Z,3.97
2018-08-24T23:35:06.065Z,5.60
2018-08-24T23:37:34.851Z,4.17
2018-08-24T23:40:03.765Z,3.67
2018-08-24T23:42:32.604Z,1.93
2018-08-24T23:45:01.403Z,1.80
2018-08-24T23:47:30.198Z,4.87
2018-08-24T23:49:58.966Z,2.67
2018-08-24T23:52:27.754Z,4.47
2018-08-24T23:54:56.575Z,3.03
2018-08-24T23:57:25.384Z,2.50
2018-08-24T23:59:54.189Z,3.47
